createdAt,value
2022-11-25T00:01:10.026Z,100454.59
2022-11-25T00:03:36.669Z,100451.13
2022-11-25T00:06:10.300Z,100456.34
2022-11-25T00:08:37.407Z,100444.22
2022-11-25T00:11:05.210Z,100439.06
2022-11-25T00:13:32.459Z,100440.75
2022-11-25T00:16:04.099Z,100436.47
2022-11-25T00:18:31.387Z,100429.53
2022-11-25T00:20:58.634Z,100437.34
2022-11-25T00:23:30.393Z,100433.81
2022-11-25T00:26:13.189Z,100423.34
2022-11-25T00:28:40.972Z,100427.72
2022-11-25T00:31:09.643Z,100426.84
2022-11-25T00:33:37.240Z,100421.63
2022-11-25T00:36:06.958Z,100425.00
2022-11-25T00:38:33.542Z,100425.00
2022-11-25T00:41:18.637Z,100422.41
2022-11-25T00:44:03.376Z,100421.53
2022-11-25T00:46:29.811Z,100414.56
2022-11-25T00:48:56.213Z,100424.13
2022-11-25T00:51:22.699Z,100421.53
2022-11-25T00:53:49.218Z,100417.19
2022-11-25T00:56:15.710Z,100418.94
2022-11-25T00:58:43.197Z,100416.41
2022-11-25T01:01:10.705Z,100410.25
2022-11-25T01:03:37.734Z,100410.28
2022-11-25T01:06:06.076Z,100413.78
2022-11-25T01:08:34.097Z,100410.34
2022-11-25T01:11:05.886Z,100409.44
2022-11-25T01:13:32.627Z,100413.81
2022-11-25T01:16:07.447Z,100413.81
2022-11-25T01:18:34.748Z,100420.75
2022-11-25T01:21:19.582Z,100423.38
2022-11-25T01:23:46.867Z,100424.22
2022-11-25T01:26:15.965Z,100421.63
2022-11-25T01:28:42.914Z,100412.06
2022-11-25T01:31:17.822Z,100414.63
2022-11-25T01:33:45.342Z,100417.22
2022-11-25T01:36:14.802Z,100420.66
2022-11-25T01:38:41.886Z,100415.44
2022-11-25T01:41:10.845Z,100412.78
2022-11-25T01:43:37.585Z,100411.91
2022-11-25T01:46:15.080Z,100417.97
2022-11-25T01:49:03.422Z,100413.63
2022-11-25T01:51:43.085Z,100422.38
2022-11-25T01:54:13.844Z,100416.31
2022-11-25T01:56:49.757Z,100417.09
2022-11-25T01:59:16.534Z,100413.63
2022-11-25T02:01:43.157Z,100415.28
2022-11-25T02:04:12.630Z,100420.44
2022-11-25T02:06:47.670Z,100416.06
2022-11-25T02:09:15.299Z,100418.63
2022-11-25T02:11:44.237Z,100420.41
2022-11-25T02:14:14.513Z,100419.47
2022-11-25T02:16:41.218Z,100420.31
2022-11-25T02:19:20.256Z,100412.44
2022-11-25T02:21:56.668Z,100405.41
2022-11-25T02:24:32.513Z,100400.16
2022-11-25T02:26:59.448Z,100402.72
2022-11-25T02:29:27.743Z,100389.59
2022-11-25T02:31:54.272Z,100397.44
2022-11-25T02:34:20.898Z,100398.34
2022-11-25T02:36:47.481Z,100397.47
2022-11-25T02:39:14.211Z,100387.97
2022-11-25T02:41:46.397Z,100401.81
2022-11-25T02:44:12.906Z,100398.34
2022-11-25T02:46:39.440Z,100388.78
2022-11-25T02:49:10.235Z,100384.38
2022-11-25T02:51:39.576Z,100385.22
2022-11-25T02:54:06.621Z,100388.63
2022-11-25T02:56:35.022Z,100388.63
2022-11-25T02:59:01.924Z,100393.81
2022-11-25T03:01:29.897Z,100391.16
2022-11-25T03:03:56.953Z,100396.38
2022-11-25T03:06:23.847Z,100397.19
2022-11-25T03:08:50.311Z,100402.41
2022-11-25T03:11:16.788Z,100400.69
2022-11-25T03:13:43.235Z,100400.69
2022-11-25T03:16:09.852Z,100410.22
2022-11-25T03:18:36.316Z,100394.56
2022-11-25T03:21:03.155Z,100395.44
2022-11-25T03:23:29.671Z,100396.31
2022-11-25T03:25:56.203Z,100398.03
2022-11-25T03:28:23.267Z,100396.31
2022-11-25T03:30:49.753Z,100398.88
2022-11-25T03:33:16.191Z,100398.91
2022-11-25T03:35:42.602Z,100402.31
2022-11-25T03:38:09.101Z,100406.66
2022-11-25T03:40:35.557Z,100410.97
2022-11-25T03:43:02.062Z,100402.28
2022-11-25T03:45:28.693Z,100410.97
2022-11-25T03:47:55.187Z,100404.78
2022-11-25T03:50:21.710Z,100408.25
2022-11-25T03:52:48.186Z,100409.13
2022-11-25T03:55:14.951Z,100419.50
2022-11-25T03:57:41.626Z,100418.69
2022-11-25T04:00:10.548Z,100425.63
2022-11-25T04:02:37.091Z,100429.09
2022-11-25T04:05:05.389Z,100429.88
2022-11-25T04:07:31.913Z,100441.19
2022-11-25T04:09:58.356Z,100441.25
2022-11-25T04:12:43.443Z,100440.44
2022-11-25T04:15:10.061Z,100441.34
2022-11-25T04:17:36.607Z,100430.97
2022-11-25T04:20:04.090Z,100440.50
2022-11-25T04:22:30.536Z,100437.13
2022-11-25T04:24:57.118Z,100437.16
2022-11-25T04:27:23.805Z,100435.47
2022-11-25T04:29:50.282Z,100440.75
2022-11-25T04:32:16.780Z,100445.97
2022-11-25T04:34:43.221Z,100450.34
2022-11-25T04:37:09.641Z,100454.69
2022-11-25T04:39:36.175Z,100454.66
2022-11-25T04:42:22.871Z,100451.25
2022-11-25T04:45:14.157Z,100453.91
2022-11-25T04:47:36.093Z,100454.78
2022-11-25T04:50:04.170Z,100468.69
2022-11-25T04:52:30.676Z,100464.31
2022-11-25T04:54:57.424Z,100469.53
2022-11-25T04:57:23.888Z,100466.06
2022-11-25T04:59:50.598Z,100475.66
2022-11-25T05:02:23.144Z,100465.22
2022-11-25T05:04:52.821Z,100467.84
2022-11-25T05:07:20.901Z,100467.84
2022-11-25T05:09:47.651Z,100476.56
2022-11-25T05:12:20.543Z,100472.22
2022-11-25T05:14:47.264Z,100478.28
2022-11-25T05:17:16.878Z,100488.72
2022-11-25T05:19:44.140Z,100485.28
2022-11-25T05:22:12.475Z,100484.44
2022-11-25T05:24:39.021Z,100490.50
2022-11-25T05:27:06.057Z,100489.66
2022-11-25T05:29:32.556Z,100492.28
2022-11-25T05:31:59.038Z,100492.28
2022-11-25T05:34:25.481Z,100497.50
2022-11-25T05:36:52.086Z,100499.28
2022-11-25T05:39:19.126Z,100501.03
2022-11-25T05:41:45.620Z,100506.25
2022-11-25T05:44:12.122Z,100522.75
2022-11-25T05:46:38.644Z,100507.16
2022-11-25T05:49:05.428Z,100518.44
2022-11-25T05:51:31.993Z,100506.28
2022-11-25T05:53:58.674Z,100518.44
2022-11-25T05:56:25.086Z,100521.94
2022-11-25T05:58:51.554Z,100521.06
2022-11-25T06:01:17.969Z,100521.06
2022-11-25T06:03:44.568Z,100525.44
2022-11-25T06:06:11.839Z,100525.41
2022-11-25T06:08:39.440Z,100528.03
2022-11-25T06:11:12.668Z,100532.38
2022-11-25T06:13:40.350Z,100536.75
2022-11-25T06:16:09.314Z,100541.97
2022-11-25T06:18:37.950Z,100536.75
2022-11-25T06:21:05.868Z,100545.44
2022-11-25T06:23:32.530Z,100555.00
2022-11-25T06:26:12.483Z,100555.00
2022-11-25T06:28:39.042Z,100547.16
2022-11-25T06:31:17.385Z,100549.78
2022-11-25T06:33:47.081Z,100556.72
2022-11-25T06:36:17.048Z,100562.81
2022-11-25T06:38:45.391Z,100560.19
2022-11-25T06:41:12.262Z,100569.75
2022-11-25T06:43:38.857Z,100562.81
2022-11-25T06:46:11.324Z,100573.25
2022-11-25T06:48:38.283Z,100576.75
2022-11-25T06:51:07.669Z,100571.53
2022-11-25T06:53:37.457Z,100572.41
2022-11-25T06:56:12.439Z,100580.22
2022-11-25T06:58:39.895Z,100581.09
2022-11-25T07:01:18.735Z,100583.69
2022-11-25T07:03:46.973Z,100581.94
2022-11-25T07:06:18.019Z,100585.41
2022-11-25T07:08:44.833Z,100588.03
2022-11-25T07:11:21.048Z,100596.72
2022-11-25T07:13:48.173Z,100604.53
2022-11-25T07:16:15.319Z,100607.13
2022-11-25T07:18:42.029Z,100607.16
2022-11-25T07:21:13.785Z,100614.13
2022-11-25T07:23:41.120Z,100605.47
2022-11-25T07:26:10.541Z,100615.03
2022-11-25T07:28:37.448Z,100619.41
2022-11-25T07:31:32.525Z,100620.28
2022-11-25T07:34:20.028Z,100628.97
2022-11-25T07:36:48.452Z,100631.59
2022-11-25T07:39:17.745Z,100641.16
2022-11-25T07:41:44.507Z,100635.94
2022-11-25T07:44:13.989Z,100645.47
2022-11-25T07:46:44.770Z,100648.94
2022-11-25T07:49:14.687Z,100657.59
2022-11-25T07:51:44.144Z,100659.34
2022-11-25T07:54:12.772Z,100661.94
2022-11-25T07:56:41.098Z,100670.59
2022-11-25T07:59:11.113Z,100667.16
2022-11-25T08:01:37.630Z,100675.81
2022-11-25T08:04:04.939Z,100671.47
2022-11-25T08:06:31.338Z,100677.50
2022-11-25T08:08:58.344Z,100676.63
2022-11-25T08:11:28.316Z,100674.03
2022-11-25T08:13:55.788Z,100682.72
2022-11-25T08:16:24.469Z,100687.91
2022-11-25T08:18:51.215Z,100684.41
2022-11-25T08:21:18.439Z,100699.16
2022-11-25T08:23:48.520Z,100698.25
2022-11-25T08:26:21.488Z,100707.81
2022-11-25T08:28:48.566Z,100704.31
2022-11-25T08:31:18.817Z,100706.06
2022-11-25T08:33:46.146Z,100713.84
2022-11-25T08:36:13.736Z,100726.88
2022-11-25T08:38:41.097Z,100723.38
2022-11-25T08:41:13.662Z,100731.22
2022-11-25T08:43:40.615Z,100733.81
2022-11-25T08:46:09.195Z,100736.41
2022-11-25T08:48:35.843Z,100735.53
2022-11-25T08:51:02.456Z,100730.34
2022-11-25T08:53:28.923Z,100732.09
2022-11-25T08:55:55.451Z,100730.34
2022-11-25T08:58:21.878Z,100730.34
2022-11-25T09:00:48.355Z,100731.25
2022-11-25T09:03:14.873Z,100728.63
2022-11-25T09:05:43.027Z,100735.56
2022-11-25T09:08:10.923Z,100734.72
2022-11-25T09:10:38.990Z,100732.97
2022-11-25T09:13:05.982Z,100739.88
2022-11-25T09:15:32.784Z,100746.81
2022-11-25T09:18:01.234Z,100747.66
2022-11-25T09:20:28.383Z,100752.88
2022-11-25T09:22:54.832Z,100758.09
2022-11-25T09:25:22.598Z,100763.31
2022-11-25T09:27:49.304Z,100773.72
2022-11-25T09:30:16.624Z,100783.28
2022-11-25T09:32:43.385Z,100779.78
2022-11-25T09:35:10.186Z,100784.09
2022-11-25T09:37:36.625Z,100791.03
2022-11-25T09:40:03.281Z,100786.66
2022-11-25T09:43:07.917Z,100787.44
2022-11-25T09:46:05.266Z,100776.06
2022-11-25T09:48:43.681Z,100789.06
2022-11-25T09:51:26.806Z,100792.53
2022-11-25T09:54:15.070Z,100799.41
2022-11-25T09:56:45.644Z,100788.97
2022-11-25T09:59:15.726Z,100795.03
2022-11-25T10:01:55.324Z,100802.88
2022-11-25T10:04:28.879Z,100812.44
2022-11-25T10:07:01.000Z,100816.75
2022-11-25T10:09:35.122Z,100821.94
2022-11-25T10:12:15.114Z,100818.41
2022-11-25T10:14:44.590Z,100813.19
2022-11-25T10:17:26.064Z,100819.25
2022-11-25T10:19:52.559Z,100820.06
2022-11-25T10:22:25.911Z,100829.63
2022-11-25T10:24:57.061Z,100831.31
2022-11-25T10:27:49.905Z,100836.50
2022-11-25T10:30:19.224Z,100839.03
2022-11-25T10:32:51.908Z,100839.03
2022-11-25T10:35:25.362Z,100840.75
2022-11-25T10:37:55.224Z,100833.69
2022-11-25T10:40:22.197Z,100841.56
2022-11-25T10:42:48.669Z,100843.25
2022-11-25T10:45:15.386Z,100842.31
2022-11-25T10:48:25.477Z,100846.66
2022-11-25T10:51:07.376Z,100853.53
2022-11-25T10:53:34.012Z,100845.63
2022-11-25T10:56:19.027Z,100849.91
2022-11-25T10:58:46.387Z,100856.00
2022-11-25T11:01:15.794Z,100854.25
2022-11-25T11:04:02.187Z,100852.44
2022-11-25T11:06:36.802Z,100855.00
2022-11-25T11:09:04.362Z,100863.69
2022-11-25T11:11:31.634Z,100862.75
2022-11-25T11:14:20.335Z,100860.94
2022-11-25T11:16:54.970Z,100865.25
2022-11-25T11:19:28.049Z,100875.72
2022-11-25T11:21:56.515Z,100869.56
2022-11-25T11:24:38.082Z,100875.59
2022-11-25T11:27:09.938Z,100888.63
2022-11-25T11:29:36.931Z,100878.97
2022-11-25T11:32:23.835Z,100885.06
2022-11-25T11:34:53.219Z,100878.03
2022-11-25T11:37:45.024Z,100878.94
2022-11-25T11:40:40.677Z,100879.91
2022-11-25T11:43:09.873Z,100878.16
2022-11-25T11:45:48.695Z,100884.16
2022-11-25T11:48:29.609Z,100882.34
2022-11-25T11:51:25.315Z,100887.56
2022-11-25T11:54:07.870Z,100884.06
2022-11-25T11:56:54.883Z,100897.94
2022-11-25T11:59:51.468Z,100898.78
2022-11-25T12:02:42.213Z,100895.16
2022-11-25T12:05:11.630Z,100895.06
2022-11-25T12:08:03.345Z,100896.78
2022-11-25T12:10:40.389Z,100910.78
2022-11-25T12:13:23.048Z,100900.38
2022-11-25T12:16:09.170Z,100903.97
2022-11-25T12:18:52.914Z,100904.81
2022-11-25T12:21:41.895Z,100914.19
2022-11-25T12:24:20.614Z,100913.25
2022-11-25T12:26:54.220Z,100921.03
2022-11-25T12:29:42.232Z,100928.78
2022-11-25T12:32:36.826Z,100931.38
2022-11-25T12:35:22.358Z,100932.16
2022-11-25T12:38:13.525Z,100933.09
2022-11-25T12:40:51.521Z,100939.25
2022-11-25T12:43:40.522Z,100934.81
2022-11-25T12:46:19.063Z,100946.97
2022-11-25T12:48:45.767Z,100940.00
2022-11-25T12:51:28.589Z,100940.88
2022-11-25T12:54:05.559Z,100950.44
2022-11-25T12:57:16.436Z,100948.75
2022-11-25T13:00:32.932Z,100965.34
2022-11-25T13:03:14.104Z,100968.72
2022-11-25T13:05:50.007Z,100964.34
2022-11-25T13:08:32.227Z,100964.25
2022-11-25T13:11:17.266Z,100964.28
2022-11-25T13:14:20.094Z,100969.47
2022-11-25T13:16:49.533Z,100976.44
2022-11-25T13:19:17.753Z,100978.06
2022-11-25T13:22:02.689Z,100986.97
2022-11-25T13:24:41.401Z,100993.09
2022-11-25T13:27:32.293Z,100993.97
2022-11-25T13:30:00.398Z,100999.25
2022-11-25T13:32:45.976Z,101000.25
2022-11-25T13:35:34.643Z,101003.78
2022-11-25T13:38:01.429Z,101000.34
2022-11-25T13:40:30.840Z,101016.94
2022-11-25T13:43:00.396Z,101020.44
2022-11-25T13:45:42.825Z,101021.31
2022-11-25T13:48:21.086Z,101025.56
2022-11-25T13:51:10.513Z,101023.59
2022-11-25T13:53:38.944Z,101031.53
2022-11-25T13:56:20.679Z,101024.66
2022-11-25T13:59:12.022Z,101024.69
2022-11-25T14:01:40.554Z,101033.41
2022-11-25T14:04:08.778Z,101039.53
2022-11-25T14:06:51.007Z,101036.91
2022-11-25T14:09:55.283Z,101040.41
2022-11-25T14:12:33.932Z,101032.63
2022-11-25T14:15:20.614Z,101048.28
2022-11-25T14:18:14.990Z,101052.69
2022-11-25T14:20:59.679Z,101059.56
2022-11-25T14:23:54.208Z,101054.34
2022-11-25T14:26:48.818Z,101060.56
2022-11-25T14:29:20.357Z,101064.00
2022-11-25T14:31:54.544Z,101070.16
2022-11-25T14:34:27.908Z,101063.13
2022-11-25T14:37:00.318Z,101074.53
2022-11-25T14:39:49.376Z,101072.81
2022-11-25T14:42:19.444Z,101086.84
2022-11-25T14:44:58.400Z,101079.03
2022-11-25T14:47:37.401Z,101082.59
2022-11-25T14:53:00.570Z,101093.06
2022-11-25T14:55:30.263Z,101090.47
2022-11-25T14:57:56.830Z,101099.16
2022-11-25T15:00:23.665Z,101100.09
2022-11-25T15:02:59.012Z,101097.47
2022-11-25T15:05:34.789Z,101107.13
2022-11-25T15:08:13.213Z,101104.53
2022-11-25T15:10:44.812Z,101115.84
2022-11-25T15:13:42.870Z,101113.16
2022-11-25T15:16:14.400Z,101122.84
2022-11-25T15:18:49.030Z,101114.16
2022-11-25T15:21:17.296Z,101121.19
2022-11-25T15:23:43.942Z,101126.47
2022-11-25T15:26:19.692Z,101127.41
2022-11-25T15:28:46.649Z,101134.38
2022-11-25T15:31:21.171Z,101140.53
2022-11-25T15:33:58.424Z,101144.00
2022-11-25T15:36:25.650Z,101147.53
2022-11-25T15:38:52.572Z,101144.91
2022-11-25T15:41:25.039Z,101146.66
2022-11-25T15:43:55.120Z,101157.16
2022-11-25T15:46:23.719Z,101172.06
2022-11-25T15:48:53.807Z,101176.50
2022-11-25T15:51:31.020Z,101173.03
2022-11-25T15:54:06.420Z,101190.47
2022-11-25T15:56:37.824Z,101188.72
2022-11-25T15:59:05.655Z,101200.94
2022-11-25T16:01:32.285Z,101190.47
2022-11-25T16:04:20.021Z,101207.94
2022-11-25T16:06:57.132Z,101208.84
2022-11-25T16:09:31.324Z,101211.44
2022-11-25T16:12:06.318Z,101208.00
2022-11-25T16:14:36.853Z,101212.34
2022-11-25T16:17:11.896Z,101217.56
2022-11-25T16:19:44.814Z,101223.63
2022-11-25T16:22:20.390Z,101225.41
2022-11-25T16:24:55.963Z,101226.28
2022-11-25T16:27:29.718Z,101233.25
2022-11-25T16:30:16.543Z,101232.38
2022-11-25T16:32:43.258Z,101238.50
2022-11-25T16:35:21.043Z,101246.34
2022-11-25T16:37:49.372Z,101241.09
2022-11-25T16:40:18.237Z,101243.72
2022-11-25T16:42:49.673Z,101248.06
2022-11-25T16:45:20.156Z,101248.94
2022-11-25T16:47:46.659Z,101254.16
2022-11-25T16:50:15.118Z,101269.81
2022-11-25T16:52:42.137Z,101270.66
2022-11-25T16:55:09.387Z,101265.41
2022-11-25T16:57:36.980Z,101278.47
2022-11-25T17:00:08.518Z,101278.47
2022-11-25T17:02:35.710Z,101286.31
2022-11-25T17:05:19.641Z,101288.91
2022-11-25T17:07:47.204Z,101293.31
2022-11-25T17:10:14.389Z,101304.66
2022-11-25T17:12:42.634Z,101304.66
2022-11-25T17:15:16.475Z,101310.75
2022-11-25T17:17:46.642Z,101315.97
2022-11-25T17:20:23.891Z,101318.56
2022-11-25T17:22:51.312Z,101319.44
2022-11-25T17:25:18.303Z,101325.53
2022-11-25T17:27:48.300Z,101326.44
2022-11-25T17:30:26.432Z,101334.25
2022-11-25T17:33:05.107Z,101333.38
2022-11-25T17:35:31.769Z,101344.75
2022-11-25T17:38:00.133Z,101345.63
2022-11-25T17:40:26.782Z,101352.59
2022-11-25T17:42:53.352Z,101358.69
2022-11-25T17:45:21.269Z,101354.31
2022-11-25T17:47:48.314Z,101363.91
2022-11-25T17:50:17.716Z,101376.97
2022-11-25T17:52:44.280Z,101372.59
2022-11-25T17:55:10.718Z,101383.03
2022-11-25T17:57:37.795Z,101393.50
2022-11-25T18:00:05.525Z,101400.47
2022-11-25T18:02:32.137Z,101403.94
2022-11-25T18:04:58.768Z,101403.09
2022-11-25T18:07:25.364Z,101396.97
2022-11-25T18:09:52.023Z,101409.19
2022-11-25T18:12:25.011Z,101407.44
2022-11-25T18:14:51.498Z,101417.91
2022-11-25T18:17:18.883Z,101419.66
2022-11-25T18:19:51.340Z,101429.25
2022-11-25T18:22:21.586Z,101435.34
2022-11-25T18:24:48.142Z,101433.56
2022-11-25T18:27:24.018Z,101437.97
2022-11-25T18:29:51.469Z,101434.47
2022-11-25T18:32:18.007Z,101440.53
2022-11-25T18:34:44.601Z,101447.53
2022-11-25T18:37:11.789Z,101461.47
2022-11-25T18:39:38.893Z,101463.19
2022-11-25T18:42:14.362Z,101463.22
2022-11-25T18:44:43.722Z,101470.16
2022-11-25T18:47:13.383Z,101467.56
2022-11-25T18:49:40.160Z,101471.06
2022-11-25T18:52:06.628Z,101475.41
2022-11-25T18:54:33.045Z,101474.56
2022-11-25T18:56:59.510Z,101479.75
2022-11-25T18:59:33.339Z,101485.00
2022-11-25T19:02:00.535Z,101498.94
2022-11-25T19:04:27.163Z,101491.97
2022-11-25T19:06:53.694Z,101495.44
2022-11-25T19:09:20.169Z,101492.84
2022-11-25T19:11:51.693Z,101498.91
2022-11-25T19:14:31.835Z,101492.81
2022-11-25T19:17:03.250Z,101505.88
2022-11-25T19:19:29.921Z,101511.97
2022-11-25T19:21:56.471Z,101516.31
2022-11-25T19:24:22.924Z,101518.91
2022-11-25T19:26:53.343Z,101522.41
2022-11-25T19:29:42.271Z,101525.88
2022-11-25T19:32:28.064Z,101528.50
2022-11-25T19:35:06.792Z,101540.69
2022-11-25T19:37:33.322Z,101538.94
2022-11-25T19:40:00.585Z,101533.72
2022-11-25T19:42:28.330Z,101544.16
2022-11-25T19:44:54.802Z,101558.09
2022-11-25T19:47:26.643Z,101552.00
2022-11-25T19:49:58.512Z,101567.66
2022-11-25T19:52:37.933Z,101569.41
2022-11-25T19:55:16.758Z,101573.75
2022-11-25T19:57:43.436Z,101571.13
2022-11-25T20:00:11.287Z,101585.03
2022-11-25T20:02:38.521Z,101578.09
2022-11-25T20:05:07.337Z,101587.66
2022-11-25T20:07:34.889Z,101585.03
2022-11-25T20:10:28.986Z,101582.44
2022-11-25T20:12:56.859Z,101581.56
2022-11-25T20:15:24.154Z,101590.22
2022-11-25T20:17:53.709Z,101597.19
2022-11-25T20:20:27.936Z,101599.81
2022-11-25T20:22:55.871Z,101605.88
2022-11-25T20:25:22.925Z,101607.59
2022-11-25T20:27:49.408Z,101605.88
2022-11-25T20:30:27.711Z,101624.09
2022-11-25T20:32:55.041Z,101620.63
2022-11-25T20:35:22.564Z,101632.78
2022-11-25T20:37:57.750Z,101633.66
2022-11-25T20:40:41.694Z,101634.50
2022-11-25T20:43:23.363Z,101644.06
2022-11-25T20:45:50.999Z,101647.53
2022-11-25T20:48:17.489Z,101645.78
2022-11-25T20:50:44.067Z,101654.41
2022-11-25T20:53:15.814Z,101648.31
2022-11-25T20:55:43.293Z,101650.06
2022-11-25T20:58:28.293Z,101658.72
2022-11-25T21:00:57.732Z,101663.94
2022-11-25T21:03:25.428Z,101654.34
2022-11-25T21:05:53.507Z,101663.91
2022-11-25T21:08:24.007Z,101665.56
2022-11-25T21:10:52.915Z,101670.75
2022-11-25T21:13:28.566Z,101681.19
2022-11-25T21:15:56.827Z,101682.88
2022-11-25T21:18:24.489Z,101678.50
2022-11-25T21:20:54.269Z,101681.97
2022-11-25T21:23:27.336Z,101678.47
2022-11-25T21:25:55.930Z,101691.47
2022-11-25T21:28:27.179Z,101710.59
2022-11-25T21:30:53.734Z,101705.38
2022-11-25T21:33:20.175Z,101713.19
2022-11-25T21:35:50.441Z,101714.09
2022-11-25T21:38:20.840Z,101711.41
2022-11-25T21:40:52.890Z,101713.13
2022-11-25T21:43:25.009Z,101719.19
2022-11-25T21:46:00.972Z,101719.13
2022-11-25T21:48:28.235Z,101726.03
2022-11-25T21:50:54.853Z,101724.28
2022-11-25T21:53:21.341Z,101725.09
2022-11-25T21:55:48.596Z,101732.00
2022-11-25T21:58:19.686Z,101731.97
2022-11-25T22:00:50.716Z,101734.53
2022-11-25T22:03:19.452Z,101736.25
2022-11-25T22:05:46.960Z,101737.09
2022-11-25T22:08:13.393Z,101746.56
2022-11-25T22:10:42.759Z,101745.66
2022-11-25T22:13:21.119Z,101751.75
2022-11-25T22:15:53.938Z,101750.81
2022-11-25T22:18:33.124Z,101746.34
2022-11-25T22:20:59.679Z,101755.03
2022-11-25T22:23:26.563Z,101761.13
2022-11-25T22:25:56.252Z,101767.22
2022-11-25T22:28:26.641Z,101764.47
2022-11-25T22:31:00.498Z,101761.00
2022-11-25T22:33:35.767Z,101772.16
2022-11-25T22:36:03.101Z,101764.38
2022-11-25T22:38:30.521Z,101774.75
2022-11-25T22:41:03.801Z,101769.47
2022-11-25T22:43:37.782Z,101773.88
2022-11-25T22:46:05.013Z,101785.09
2022-11-25T22:48:35.533Z,101798.06
2022-11-25T22:51:02.702Z,101791.88
2022-11-25T22:53:29.260Z,101794.53
2022-11-25T22:55:58.036Z,101806.66
2022-11-25T22:58:27.960Z,101814.47
2022-11-25T23:00:56.595Z,101817.78
2022-11-25T23:03:29.453Z,101820.28
2022-11-25T23:05:56.781Z,101825.50
2022-11-25T23:08:25.842Z,101825.50
2022-11-25T23:10:53.650Z,101822.97
2022-11-25T23:13:23.406Z,101822.88
2022-11-25T23:15:55.563Z,101828.16
2022-11-25T23:18:48.351Z,101835.84
2022-11-25T23:21:21.996Z,101834.00
2022-11-25T23:23:48.550Z,101832.25
2022-11-25T23:26:15.813Z,101834.03
2022-11-25T23:28:42.495Z,101839.31
2022-11-25T23:31:14.167Z,101837.50
2022-11-25T23:33:44.857Z,101844.41
2022-11-25T23:36:18.739Z,101848.78
2022-11-25T23:38:49.336Z,101849.66
2022-11-25T23:41:20.066Z,101848.03
2022-11-25T23:43:46.624Z,101858.41
2022-11-25T23:46:15.221Z,101861.00
2022-11-25T23:48:45.449Z,101860.94
2022-11-25T23:51:12.412Z,101868.72
2022-11-25T23:53:41.002Z,101861.00
2022-11-25T23:56:07.975Z,101862.66
2022-11-25T23:58:34.697Z,101868.81
